Time;durP1;ratioP1;P1;durP2;ratioP2;P2;SDS_P1;SDS_P2;PMS_P1;PMS_P2;Temp;Humidity;BMP_temperature;BMP_pressure;BME280_temperature;BME280_humidity;BME280_pressure;Samples;Min_cycle;Max_cycle;Signal;HPM_P1;HPM_P2
2022/05/29 00:00:39;;;;;;;22.20;12.13;;;;;;;16.66;88.45;94288.78;4167366;28;20076;-58
2022/05/29 00:02:41;;;;;;;22.63;12.13;;;;;;;16.67;88.68;94289.59;4164754;28;20111;-57
2022/05/29 00:04:42;;;;;;;21.13;11.27;;;;;;;16.62;89.28;94276.97;4169364;28;20574;-55
2022/05/29 00:06:48;;;;;;;20.52;10.98;;;;;;;16.74;88.40;94267.41;4171556;28;20049;-55
2022/05/29 00:08:50;;;;;;;20.85;11.18;;;;;;;16.81;87.87;94250.75;4165621;28;20057;-54
2022/05/29 00:10:52;;;;;;;26.60;11.15;;;;;;;16.87;88.30;94239.31;4162335;28;20042;-58
2022/05/29 00:12:54;;;;;;;19.23;11.15;;;;;;;17.04;87.75;94266.94;4169834;28;20108;-58
2022/05/29 00:14:55;;;;;;;18.27;10.48;;;;;;;17.18;86.62;94268.50;4170299;28;20049;-54
2022/05/29 00:16:57;;;;;;;23.27;11.23;;;;;;;17.35;86.75;94279.41;4170076;28;20053;-57
2022/05/29 00:18:59;;;;;;;20.15;10.82;;;;;;;17.56;86.27;94265.06;4165634;28;20391;-58
2022/05/29 00:21:02;;;;;;;21.02;11.05;;;;;;;17.77;85.44;94255.97;4176943;28;20045;-58
2022/05/29 00:23:04;;;;;;;21.02;10.65;;;;;;;17.94;84.35;94261.59;4174541;28;20494;-58
2022/05/29 00:25:08;;;;;;;15.02;10.50;;;;;;;18.13;83.57;94273.06;4159893;28;20465;-57
2022/05/29 00:27:16;;;;;;;17.45;10.45;;;;;;;18.29;82.55;94263.75;4158631;28;20045;-54
2022/05/29 00:29:17;;;;;;;14.68;10.10;;;;;;;18.39;81.74;94234.06;4160807;28;20127;-55
2022/05/29 00:31:26;;;;;;;16.55;9.70;;;;;;;18.48;81.59;94203.63;4159318;28;20203;-56
2022/05/29 00:33:28;;;;;;;16.30;9.60;;;;;;;18.56;81.06;94200.69;4173511;28;20092;-54
2022/05/29 00:35:30;;;;;;;16.13;9.60;;;;;;;18.64;80.18;94204.84;4158311;28;20162;-55
2022/05/29 00:37:36;;;;;;;15.40;10.88;;;;;;;18.70;80.07;94198.69;4168895;28;20061;-55
2022/05/29 00:39:37;;;;;;;14.48;9.25;;;;;;;18.75;79.41;94192.69;4175408;28;20044;-58
2022/05/29 00:41:40;;;;;;;14.00;8.50;;;;;;;18.66;78.19;94178.13;4175758;28;20049;-54
2022/05/29 00:43:41;;;;;;;17.42;9.15;;;;;;;18.58;78.86;94164.13;4173173;28;20064;-56
2022/05/29 00:45:57;;;;;;;18.67;9.88;;;;;;;18.55;79.09;94158.44;4158398;28;20072;-56
2022/05/29 00:48:03;;;;;;;21.02;10.18;;;;;;;18.55;79.64;94140.69;4170399;28;20152;-55
2022/05/29 00:50:06;;;;;;;14.45;9.48;;;;;;;18.62;79.74;94154.66;4161079;28;20076;-55
2022/05/29 00:52:08;;;;;;;15.85;9.00;;;;;;;18.67;79.24;94193.00;4162050;28;20119;-54
2022/05/29 00:54:10;;;;;;;15.80;9.27;;;;;;;18.65;78.97;94229.53;4176349;28;20112;-54
2022/05/29 00:56:12;;;;;;;15.50;10.05;;;;;;;18.62;78.71;94226.28;4166765;28;20541;-57
2022/05/29 00:58:14;;;;;;;15.68;9.52;;;;;;;18.54;79.26;94180.69;4168529;28;20057;-54
2022/05/29 01:00:20;;;;;;;17.27;9.60;;;;;;;18.41;79.36;94184.28;4161337;28;20472;-54
2022/05/29 01:02:22;;;;;;;20.08;10.43;;;;;;;18.37;80.19;94175.19;4159992;28;20139;-55
2022/05/29 01:04:23;;;;;;;23.40;10.60;;;;;;;18.39;79.83;94163.31;4159321;28;20127;-57
2022/05/29 01:06:25;;;;;;;15.43;9.60;;;;;;;18.41;80.11;94152.47;4164872;28;20060;-53
2022/05/29 01:08:33;;;;;;;15.85;9.65;;;;;;;18.39;79.59;94139.44;4172240;28;20567;-55
2022/05/29 01:10:54;;;;;;;15.35;9.95;;;;;;;18.41;79.82;94142.69;4162784;28;20045;-55
2022/05/29 01:13:03;;;;;;;15.82;10.27;;;;;;;18.49;79.84;94151.38;4171635;28;20048;-58
2022/05/29 01:15:07;;;;;;;15.70;10.00;;;;;;;18.57;79.58;94167.00;4167133;28;20061;-55
2022/05/29 01:17:52;;;;;;;16.13;9.65;;;;;;;18.63;79.15;94161.59;4170198;28;20103;-54
2022/05/29 01:20:06;;;;;;;17.30;9.77;;;;;;;18.68;78.82;94131.75;4162823;28;20132;-54
2022/05/29 01:22:08;;;;;;;20.88;9.50;;;;;;;18.71;78.60;94173.75;4159913;28;20049;-55
2022/05/29 01:24:22;;;;;;;15.65;9.10;;;;;;;18.75;77.82;94193.50;4165363;28;20048;-56
2022/05/29 01:26:42;;;;;;;22.17;10.27;;;;;;;18.78;78.05;94166.56;4175471;28;20048;-57
2022/05/29 01:28:51;;;;;;;15.90;9.13;;;;;;;18.79;77.71;94146.94;4172894;28;20041;-57
2022/05/29 01:31:44;;;;;;;16.83;8.30;;;;;;;18.79;76.92;94146.16;4157868;28;20422;-57
2022/05/29 01:34:17;;;;;;;21.35;8.10;;;;;;;18.73;75.89;94144.34;4173742;28;20044;-56
2022/05/29 01:36:39;;;;;;;16.83;7.20;;;;;;;18.67;76.12;94142.59;4171568;28;20160;-52
2022/05/29 01:39:06;;;;;;;11.73;6.90;;;;;;;18.69;76.26;94130.75;4185768;28;20045;-53
2022/05/29 01:41:15;;;;;;;17.00;6.55;;;;;;;18.75;76.19;94123.72;4160810;28;20156;-56
2022/05/29 01:43:28;;;;;;;13.18;7.00;;;;;;;18.75;75.66;94123.72;4173166;28;20045;-53
2022/05/29 01:45:53;;;;;;;15.13;6.70;;;;;;;18.74;75.60;94140.69;4155441;28;20473;-54
2022/05/29 01:48:14;;;;;;;11.07;6.75;;;;;;;18.78;75.63;94152.50;4175148;28;20045;-54
2022/05/29 01:50:24;;;;;;;13.07;5.93;;;;;;;18.73;74.97;94152.31;4182236;28;20104;-55
2022/05/29 01:52:32;;;;;;;17.85;6.20;;;;;;;18.60;74.90;94140.00;4158589;28;20093;-51
2022/05/29 01:54:44;;;;;;;13.68;6.47;;;;;;;18.52;74.80;94132.34;4159460;28;20091;-54
2022/05/29 01:56:49;;;;;;;13.05;6.03;;;;;;;18.49;75.26;94130.16;4166203;28;20107;-54
2022/05/29 01:58:57;;;;;;;12.70;6.03;;;;;;;18.51;76.02;94128.91;4166211;28;20138;-55
2022/05/29 02:01:01;;;;;;;13.02;6.53;;;;;;;18.59;76.27;94122.50;4158058;28;20046;-56
2022/05/29 02:03:03;;;;;;;;;;;;;;;18.63;75.49;94119.16;4176055;28;20049;-55
2022/05/29 02:05:10;;;;;;;13.77;5.93;;;;;;;18.63;74.92;94113.06;4180443;28;19925;-55
2022/05/29 02:09:40;;;;;;;13.70;5.57;;;;;;;18.68;74.37;94113.19;4157458;28;20131;-55
2022/05/29 02:11:42;;;;;;;12.18;5.05;;;;;;;18.67;74.07;94106.28;4160960;28;20049;-57
2022/05/29 02:13:48;;;;;;;14.65;5.15;;;;;;;18.60;73.30;94113.47;4164386;28;20049;-57
2022/05/29 02:16:03;;;;;;;10.88;5.60;;;;;;;18.42;73.82;94114.31;4155889;28;20137;-56
2022/05/29 02:18:10;;;;;;;9.93;5.30;;;;;;;18.35;74.51;94113.59;4159313;28;20506;-55
2022/05/29 02:20:26;;;;;;;15.70;5.72;;;;;;;18.33;75.48;94111.16;4160570;28;20057;-54
2022/05/29 02:22:29;;;;;;;9.52;5.07;;;;;;;18.42;76.08;94099.22;4162857;28;20083;-55
2022/05/29 02:24:37;;;;;;;14.20;5.75;;;;;;;18.54;76.04;94096.63;4166444;28;20049;-55
2022/05/29 02:26:48;;;;;;;9.20;5.50;;;;;;;18.63;75.75;94095.28;4157341;28;20057;-55
2022/05/29 02:28:55;;;;;;;13.50;5.72;;;;;;;18.69;75.32;94096.25;4159492;28;20532;-58
2022/05/29 02:31:37;;;;;;;11.82;5.60;;;;;;;18.74;74.85;94085.75;4166389;28;20049;-55
2022/05/29 02:34:00;;;;;;;15.30;5.55;;;;;;;18.76;74.68;94083.69;4147170;28;20053;-56
2022/05/29 02:36:29;;;;;;;14.55;5.47;;;;;;;18.77;74.87;94082.66;4157003;28;20104;-55
2022/05/29 02:38:32;;;;;;;8.07;5.43;;;;;;;18.79;74.61;94071.84;4169670;28;20418;-55
2022/05/29 02:40:57;;;;;;;12.77;5.45;;;;;;;18.81;73.95;94072.44;4170994;28;20122;-54
2022/05/29 02:43:43;;;;;;;8.73;4.40;;;;;;;18.61;72.00;94070.81;4164442;28;20139;-55
2022/05/29 02:45:52;;;;;;;7.40;4.18;;;;;;;18.54;73.07;94079.88;4158612;28;20052;-55
2022/05/29 02:48:38;;;;;;;6.85;4.18;;;;;;;18.41;71.94;94079.03;4156132;28;20097;-58
2022/05/29 02:51:04;;;;;;;6.40;3.80;;;;;;;18.22;70.83;94066.81;4157025;28;20045;-55
2022/05/29 02:53:13;;;;;;;11.88;3.70;;;;;;;18.05;71.64;94068.41;4175614;28;20171;-55
2022/05/29 02:55:16;;;;;;;8.60;3.63;;;;;;;18.05;72.25;94071.06;4175551;28;20055;-53
2022/05/29 02:57:18;;;;;;;13.93;5.53;;;;;;;18.12;72.94;94069.97;4174968;28;20132;-56
2022/05/29 02:59:22;;;;;;;9.13;4.35;;;;;;;18.18;73.40;94063.81;4160737;28;20054;-55
2022/05/29 03:02:02;;;;;;;10.48;4.20;;;;;;;18.27;73.82;94059.00;4170659;28;20441;-54
2022/05/29 03:04:13;;;;;;;9.35;4.10;;;;;;;18.30;74.05;94053.25;4158057;28;20119;-55
2022/05/29 03:06:46;;;;;;;12.15;4.50;;;;;;;18.33;73.92;94052.03;4159772;28;20045;-54
2022/05/29 03:09:02;;;;;;;9.00;4.00;;;;;;;18.32;73.16;94045.88;4142190;28;20064;-54
2022/05/29 03:11:24;;;;;;;10.63;4.75;;;;;;;18.33;73.05;94047.50;4162127;28;20191;-56
2022/05/29 03:13:35;;;;;;;8.20;3.75;;;;;;;18.23;71.95;94041.94;4155200;28;20053;-55
2022/05/29 03:16:21;;;;;;;9.80;4.28;;;;;;;18.21;72.88;94043.97;4168037;28;20143;-57
2022/05/29 03:18:42;;;;;;;10.02;4.35;;;;;;;18.25;73.22;94029.25;4167797;28;20061;-54
2022/05/29 03:20:56;;;;;;;10.13;4.45;;;;;;;18.30;73.02;94029.38;4160781;28;20129;-56
2022/05/29 03:23:20;;;;;;;7.35;4.28;;;;;;;18.33;73.53;94026.31;4174017;28;20049;-56
2022/05/29 03:25:45;;;;;;;10.40;4.47;;;;;;;18.41;73.66;94028.66;4166225;28;20097;-54
2022/05/29 03:27:48;;;;;;;12.63;4.80;;;;;;;18.44;72.78;94031.91;4159781;28;20049;-54
2022/05/29 03:30:09;;;;;;;11.02;4.65;;;;;;;18.40;72.31;94036.81;4157852;28;20061;-55
2022/05/29 03:32:11;;;;;;;9.45;4.63;;;;;;;18.40;72.75;94029.66;4159186;28;20652;-56
2022/05/29 03:34:14;;;;;;;9.35;4.20;;;;;;;18.48;72.40;94027.75;4160534;28;20415;-54
2022/05/29 03:36:16;;;;;;;9.55;4.25;;;;;;;18.47;72.05;94026.13;4169895;28;20096;-54
2022/05/29 03:38:18;;;;;;;10.07;4.55;;;;;;;18.52;72.78;94026.25;4177484;28;20106;-52
2022/05/29 03:40:21;;;;;;;;;;;;;;;18.52;73.20;94018.31;4162977;28;20046;-55
2022/05/29 03:42:23;;;;;;;10.88;4.88;;;;;;;18.57;73.23;94026.41;4162442;28;19921;-55
2022/05/29 03:44:25;;;;;;;11.75;4.28;;;;;;;18.65;73.10;94026.09;4164265;28;20630;-55
2022/05/29 03:46:26;;;;;;;7.80;4.32;;;;;;;18.71;72.54;94024.38;4169685;28;20053;-55
2022/05/29 03:48:30;;;;;;;11.02;4.50;;;;;;;18.74;72.15;94027.41;4160700;28;20072;-53
2022/05/29 03:50:34;;;;;;;9.70;4.07;;;;;;;18.79;72.19;94022.25;4160745;28;20103;-54
2022/05/29 03:52:35;;;;;;;7.40;4.22;;;;;;;18.79;71.50;94030.19;4161385;28;20073;-56
2022/05/29 03:54:37;;;;;;;9.10;4.32;;;;;;;18.81;71.39;94027.31;4176627;28;20116;-54
2022/05/29 03:56:39;;;;;;;8.43;4.18;;;;;;;18.78;70.86;94020.63;4171137;28;20060;-55
2022/05/29 03:58:41;;;;;;;9.82;4.30;;;;;;;18.75;70.53;94014.94;4169467;28;20065;-56
2022/05/29 04:00:42;;;;;;;8.88;4.57;;;;;;;18.78;70.69;94015.31;4175526;28;20060;-56
2022/05/29 04:02:46;;;;;;;9.55;4.30;;;;;;;18.79;70.84;94014.28;4176086;28;20053;-56
2022/05/29 04:04:47;;;;;;;12.27;4.53;;;;;;;18.79;70.77;94008.97;4159960;28;20057;-57
2022/05/29 04:06:49;;;;;;;9.30;4.38;;;;;;;18.83;70.94;94007.47;4166531;28;20094;-52
2022/05/29 04:13:39;;;;;;;8.10;4.28;;;;;;;18.75;70.01;94002.47;4161226;28;20045;-58
2022/05/29 04:15:46;;;;;;;9.57;5.18;;;;;;;18.75;71.02;94004.31;4161389;28;20127;-54
2022/05/29 04:17:48;;;;;;;13.05;4.40;;;;;;;18.80;71.31;94018.56;4160411;28;20103;-56
2022/05/29 04:19:50;;;;;;;10.25;4.80;;;;;;;18.81;70.85;94003.44;4169416;28;20049;-56
2022/05/29 04:21:51;;;;;;;9.98;4.50;;;;;;;18.79;69.89;94005.50;4176780;28;20079;-54
2022/05/29 04:23:53;;;;;;;11.00;5.10;;;;;;;18.70;68.97;94007.66;4170297;28;20049;-55
2022/05/29 04:25:54;;;;;;;12.00;4.65;;;;;;;18.57;69.46;94007.84;4159814;28;20057;-53
2022/05/29 04:27:56;;;;;;;10.60;4.65;;;;;;;18.42;70.63;94006.41;4160456;28;20068;-55
2022/05/29 04:29:58;;;;;;;14.23;5.68;;;;;;;18.29;71.19;94013.72;4158072;28;20418;-57
2022/05/29 04:34:19;;;;;;;10.90;4.53;;;;;;;18.54;70.47;94010.94;4168119;28;20049;-55
2022/05/29 04:36:21;;;;;;;12.55;5.20;;;;;;;18.56;70.77;94022.13;4160587;28;20469;-54
2022/05/29 04:38:24;;;;;;;8.52;4.30;;;;;;;18.68;70.58;94019.53;4174155;28;20056;-54
2022/05/29 04:40:26;;;;;;;9.95;5.15;;;;;;;18.82;70.19;94024.47;4175866;28;20885;-54
2022/05/29 04:42:28;;;;;;;9.30;4.30;;;;;;;18.95;70.09;94031.41;4161140;28;20515;-55
2022/05/29 04:44:30;;;;;;;8.40;4.55;;;;;;;19.09;69.31;94024.03;4159629;28;20080;-55
2022/05/29 04:46:32;;;;;;;10.18;4.57;;;;;;;19.20;69.07;94030.41;4161279;28;20423;-54
2022/05/29 04:48:34;;;;;;;11.10;4.78;;;;;;;19.28;68.68;94024.78;4162191;28;20167;-55
2022/05/29 04:50:36;;;;;;;11.55;4.95;;;;;;;19.35;68.19;94028.13;4174466;28;20045;-53
2022/05/29 04:52:38;;;;;;;7.47;4.50;;;;;;;19.38;68.41;94024.19;4163049;28;20098;-57
2022/05/29 04:54:40;;;;;;;10.63;4.70;;;;;;;19.32;68.40;94027.78;4159522;28;20149;-55
2022/05/29 04:56:42;;;;;;;9.68;5.03;;;;;;;19.39;68.39;94020.50;4160425;28;20053;-53
2022/05/29 04:58:43;;;;;;;10.02;4.18;;;;;;;19.44;68.23;94028.59;4163726;28;20045;-57
2022/05/29 05:00:45;;;;;;;10.23;4.63;;;;;;;19.48;68.12;94019.13;4171792;28;20053;-56
2022/05/29 05:02:47;;;;;;;8.45;4.82;;;;;;;19.54;67.82;94023.50;4162960;28;20049;-58
2022/05/29 05:04:48;;;;;;;12.25;5.20;;;;;;;19.63;67.69;94016.00;4159973;28;20058;-54
2022/05/29 05:06:53;;;;;;;14.05;5.35;;;;;;;19.70;67.32;94023.88;4167926;28;20045;-52
2022/05/29 05:08:55;;;;;;;11.88;5.75;;;;;;;19.75;67.46;94024.03;4164910;28;20049;-54
2022/05/29 05:10:57;;;;;;;12.52;5.47;;;;;;;19.78;67.33;94019.03;4158750;28;20050;-55
2022/05/29 05:12:59;;;;;;;9.43;5.20;;;;;;;19.79;67.12;94023.31;4173703;28;20049;-57
2022/05/29 05:15:08;;;;;;;11.75;6.03;;;;;;;19.78;66.94;94026.19;4164845;28;20048;-56
2022/05/29 05:17:10;;;;;;;13.50;6.00;;;;;;;19.78;66.94;94027.00;4161107;28;20065;-55
2022/05/29 05:19:12;;;;;;;9.18;5.40;;;;;;;19.80;66.81;94030.25;4161295;28;20049;-55
2022/05/29 05:21:14;;;;;;;13.27;6.68;;;;;;;19.89;67.05;94028.03;4160969;28;20466;-54
2022/05/29 05:23:16;;;;;;;10.55;6.40;;;;;;;19.94;66.71;94012.22;4158915;28;20125;-54
2022/05/29 05:25:18;;;;;;;14.93;6.40;;;;;;;19.99;66.75;94017.63;4161161;28;20087;-55
2022/05/29 05:27:19;;;;;;;11.57;6.60;;;;;;;20.02;66.35;94014.47;4159168;28;20110;-54
2022/05/29 05:29:22;;;;;;;10.80;6.15;;;;;;;20.05;66.53;94011.38;4159079;28;20123;-52
2022/05/29 05:31:25;;;;;;;13.23;6.43;;;;;;;20.09;66.34;94010.88;4159304;28;20057;-53
2022/05/29 05:33:26;;;;;;;13.77;6.35;;;;;;;20.13;66.58;94020.81;4159537;28;20049;-52
2022/05/29 05:35:28;;;;;;;11.35;5.63;;;;;;;20.20;66.51;94020.72;4170865;28;20045;-54
2022/05/29 05:37:30;;;;;;;10.50;6.45;;;;;;;20.23;66.33;94017.56;4171651;28;20133;-52
2022/05/29 05:39:32;;;;;;;15.32;6.35;;;;;;;20.18;66.43;94017.47;4171346;28;20446;-54
2022/05/29 05:41:35;;;;;;;13.38;6.35;;;;;;;20.20;66.90;94018.06;4171197;28;20048;-54
2022/05/29 05:43:37;;;;;;;11.75;6.70;;;;;;;20.20;66.39;94016.19;4168931;28;20489;-55
2022/05/29 05:45:41;;;;;;;12.23;6.07;;;;;;;20.16;66.47;94000.94;4161192;28;20667;-55
2022/05/29 05:47:43;;;;;;;7.82;5.60;;;;;;;20.25;66.20;94015.50;4159062;28;20057;-54
2022/05/29 05:49:44;;;;;;;12.48;7.10;;;;;;;20.41;65.84;94020.06;4162780;28;20512;-54
2022/05/29 05:51:47;;;;;;;14.40;6.60;;;;;;;20.48;65.89;94019.09;4175495;28;20075;-54
2022/05/29 05:53:49;;;;;;;14.43;6.30;;;;;;;20.57;65.40;94012.38;4164209;28;20057;-55
2022/05/29 05:55:51;;;;;;;10.23;6.10;;;;;;;20.56;65.21;94000.09;4158443;28;20068;-54
2022/05/29 05:57:53;;;;;;;14.05;6.53;;;;;;;20.61;65.53;94002.91;4161608;28;20052;-53
2022/05/29 05:59:54;;;;;;;19.20;6.65;;;;;;;20.66;65.49;94009.13;4167650;28;20115;-56
2022/05/29 06:01:58;;;;;;;11.07;6.32;;;;;;;20.77;65.12;94002.13;4159924;28;20278;-54
2022/05/29 06:04:00;;;;;;;;;;;;;;;20.85;64.36;94008.94;4171386;28;20061;-54
2022/05/29 06:06:02;;;;;;;12.65;5.55;;;;;;;20.96;64.03;94009.91;4158718;28;20007;-54
2022/05/29 06:08:04;;;;;;;11.40;5.60;;;;;;;21.07;63.85;94017.00;4158481;28;20057;-53
2022/05/29 06:10:06;;;;;;;11.52;6.32;;;;;;;21.18;63.14;94013.47;4158454;28;20195;-56
2022/05/29 06:12:09;;;;;;;10.18;5.68;;;;;;;21.25;62.95;94014.13;4158509;28;20103;-58
2022/05/29 06:14:11;;;;;;;11.88;4.72;;;;;;;21.22;62.64;94009.28;4169442;28;20618;-55
2022/05/29 06:16:13;;;;;;;13.13;4.65;;;;;;;21.23;63.02;94018.06;4160933;28;20069;-53
2022/05/29 06:18:16;;;;;;;13.55;4.05;;;;;;;21.24;62.35;93999.19;4173439;28;20429;-54
2022/05/29 06:20:18;;;;;;;12.37;4.83;;;;;;;21.19;63.54;93991.13;4161245;28;20099;-55
2022/05/29 06:22:21;;;;;;;11.18;4.30;;;;;;;21.25;63.54;93992.81;4159231;28;20746;-54
2022/05/29 06:24:22;;;;;;;12.50;4.10;;;;;;;21.18;62.05;93997.50;4171078;28;20045;-55
2022/05/29 06:26:24;;;;;;;9.40;3.30;;;;;;;21.13;62.25;93988.63;4164691;28;20081;-56
2022/05/29 06:28:26;;;;;;;9.13;3.75;;;;;;;21.05;61.94;93981.84;4176841;28;20045;-54
2022/05/29 06:30:28;;;;;;;12.90;3.70;;;;;;;20.99;62.03;93977.47;4171296;28;20049;-55
2022/05/29 06:32:30;;;;;;;11.05;3.85;;;;;;;21.07;62.13;93974.41;4168962;28;20045;-54
2022/05/29 06:34:32;;;;;;;10.70;3.28;;;;;;;21.12;61.66;93974.47;4177974;28;20064;-55
2022/05/29 06:36:34;;;;;;;7.05;3.30;;;;;;;21.14;61.10;93959.06;4178454;28;20184;-57
2022/05/29 06:38:36;;;;;;;10.98;3.33;;;;;;;21.26;61.17;93965.13;4161857;28;20157;-54
2022/05/29 06:40:42;;;;;;;9.43;3.20;;;;;;;21.38;61.16;93961.56;4160829;28;20104;-58
2022/05/29 06:42:44;;;;;;;6.97;3.13;;;;;;;21.51;61.33;93960.44;4161643;28;20041;-53
2022/05/29 06:44:45;;;;;;;9.68;3.03;;;;;;;21.61;60.00;93952.59;4158356;28;20061;-55
2022/05/29 06:46:47;;;;;;;7.85;2.53;;;;;;;21.67;58.07;93960.41;4161648;28;20294;-52
2022/05/29 06:48:49;;;;;;;6.57;2.47;;;;;;;21.73;56.67;93955.16;4161257;28;20053;-57
2022/05/29 06:50:51;;;;;;;12.68;3.15;;;;;;;21.74;56.01;93951.44;4174845;28;20053;-54
2022/05/29 06:52:53;;;;;;;6.93;2.28;;;;;;;21.79;57.18;93949.66;4161181;28;20037;-54
2022/05/29 06:54:55;;;;;;;6.28;2.63;;;;;;;21.81;55.59;93941.38;4160857;28;20114;-53
2022/05/29 06:56:57;;;;;;;8.88;2.70;;;;;;;21.95;54.52;93950.66;4160911;28;20049;-56
2022/05/29 06:58:59;;;;;;;6.10;2.13;;;;;;;21.86;54.04;93938.81;4161515;28;20392;-55
2022/05/29 07:08:10;;;;;;;12.70;3.60;;;;;;;21.77;53.71;93934.94;4164841;28;20040;-53
2022/05/29 07:10:12;;;;;;;11.20;2.65;;;;;;;21.91;54.18;93930.06;4177591;28;20077;-55
2022/05/29 07:12:26;;;;;;;6.70;2.78;;;;;;;21.78;54.09;93932.03;4176304;28;20488;-55
2022/05/29 07:14:28;;;;;;;8.40;2.65;;;;;;;21.87;55.11;93924.41;4177603;28;20049;-54
2022/05/29 07:16:33;;;;;;;9.95;3.00;;;;;;;21.98;54.51;93925.34;4172559;28;20148;-54
2022/05/29 07:18:35;;;;;;;9.82;2.97;;;;;;;22.11;53.80;93916.16;4160075;28;20056;-54
2022/05/29 07:20:38;;;;;;;10.23;2.85;;;;;;;22.09;54.39;93917.22;4161331;28;20068;-53
2022/05/29 07:22:41;;;;;;;10.02;2.47;;;;;;;22.23;54.80;93908.84;4161732;28;20123;-56
2022/05/29 07:24:43;;;;;;;7.47;2.80;;;;;;;22.27;53.68;93901.97;4160556;28;20119;-54
2022/05/29 07:26:45;;;;;;;7.30;2.45;;;;;;;22.42;54.06;93928.00;4171107;28;20114;-54
2022/05/29 07:28:47;;;;;;;9.43;2.80;;;;;;;22.56;54.26;93926.53;4165919;28;20049;-57
2022/05/29 07:30:49;;;;;;;8.32;2.30;;;;;;;22.75;53.19;93932.31;4168640;28;20114;-55
2022/05/29 07:32:51;;;;;;;8.32;2.72;;;;;;;22.88;52.56;93929.22;4171169;28;20135;-55
2022/05/29 07:34:53;;;;;;;7.57;2.40;;;;;;;22.93;53.29;93933.00;4177026;28;20052;-56
2022/05/29 07:37:05;;;;;;;12.85;3.15;;;;;;;22.99;53.00;93924.75;4175195;28;20144;-56
2022/05/29 07:39:08;;;;;;;9.35;2.70;;;;;;;22.79;53.30;93930.75;4165505;28;20155;-55
2022/05/29 07:43:30;;;;;;;12.27;3.80;;;;;;;22.93;53.58;93928.47;4160698;28;20482;-56
2022/05/29 07:45:32;;;;;;;18.55;3.33;;;;;;;22.98;54.10;93933.84;4161751;28;20483;-53
2022/05/29 07:47:40;;;;;;;8.05;2.60;;;;;;;23.06;53.23;93933.41;4163779;28;20452;-53
2022/05/29 07:49:42;;;;;;;6.32;2.70;;;;;;;23.10;52.78;93925.69;4164714;28;20068;-53
2022/05/29 07:51:44;;;;;;;9.30;3.03;;;;;;;23.27;52.61;93929.03;4175533;28;20084;-55
2022/05/29 07:53:45;;;;;;;10.60;2.90;;;;;;;23.31;51.84;93935.47;4167854;28;20053;-55
2022/05/29 07:55:47;;;;;;;6.97;2.50;;;;;;;23.19;51.82;93924.16;4171920;28;20096;-51
2022/05/29 07:57:49;;;;;;;8.73;2.42;;;;;;;22.95;52.01;93939.72;4162523;28;20575;-55
2022/05/29 07:59:51;;;;;;;9.52;2.97;;;;;;;22.91;51.36;93911.91;4175561;28;20452;-56
2022/05/29 08:01:52;;;;;;;9.60;2.80;;;;;;;22.94;52.34;93923.94;4175512;28;20122;-56
2022/05/29 08:03:54;;;;;;;9.55;2.50;;;;;;;23.05;52.27;93917.63;4166650;28;20111;-54
2022/05/29 08:05:56;;;;;;;9.30;3.05;;;;;;;23.08;52.62;93911.78;4173653;28;20065;-56
2022/05/29 08:07:58;;;;;;;10.57;3.40;;;;;;;23.13;52.47;93914.50;4173707;28;20110;-57
2022/05/29 08:10:00;;;;;;;10.90;3.53;;;;;;;23.19;52.13;93920.66;4161452;28;20048;-56
2022/05/29 08:12:03;;;;;;;13.15;3.58;;;;;;;23.12;52.57;93909.41;4165914;28;20064;-57
2022/05/29 08:14:05;;;;;;;10.77;3.08;;;;;;;23.25;52.80;93912.47;4173914;28;20171;-58
2022/05/29 08:16:06;;;;;;;9.57;3.70;;;;;;;23.48;52.07;93900.56;4173855;28;20385;-57
2022/05/29 08:18:09;;;;;;;10.32;3.45;;;;;;;23.53;52.13;93907.78;4163633;28;20123;-56
2022/05/29 08:20:13;;;;;;;11.57;3.38;;;;;;;23.37;51.38;93901.56;4163213;28;20130;-55
2022/05/29 08:22:14;;;;;;;8.88;2.75;;;;;;;23.42;51.53;93892.78;4170580;28;20471;-56
2022/05/29 08:31:46;;;;;;;8.15;3.70;;;;;;;24.00;50.05;93901.63;4174182;28;20106;-55
2022/05/29 08:33:48;;;;;;;9.38;3.20;;;;;;;23.96;48.51;93897.88;4161784;28;20048;-55
2022/05/29 08:35:56;;;;;;;8.18;2.80;;;;;;;24.01;48.61;93895.22;4158380;28;20198;-55
2022/05/29 08:37:59;;;;;;;8.07;2.75;;;;;;;23.87;48.86;93892.22;4160379;28;20053;-57
2022/05/29 08:40:01;;;;;;;14.77;5.93;;;;;;;23.81;49.45;93892.47;4161091;28;20482;-54
2022/05/29 08:42:03;;;;;;;9.20;4.10;;;;;;;23.95;50.07;93898.94;4159959;28;20148;-57
2022/05/29 08:44:24;;;;;;;17.55;4.55;;;;;;;24.13;49.26;93894.97;4160423;28;20072;-57
2022/05/29 08:46:34;;;;;;;26.95;10.18;;;;;;;24.33;49.34;93884.34;4174479;28;20041;-57
2022/05/29 08:48:36;;;;;;;10.77;4.28;;;;;;;24.48;48.62;93886.28;4164506;28;20446;-55
2022/05/29 08:50:47;;;;;;;15.10;3.97;;;;;;;24.60;48.28;93885.22;4159530;28;20049;-56
2022/05/29 08:53:05;;;;;;;16.13;4.50;;;;;;;24.61;48.54;93878.78;4160452;28;20509;-52
2022/05/29 08:55:06;;;;;;;16.70;4.45;;;;;;;24.59;48.43;93872.91;4174393;28;20291;-56
2022/05/29 08:57:40;;;;;;;10.07;3.30;;;;;;;24.87;47.31;93876.94;4165615;28;20129;-53
2022/05/29 08:59:56;;;;;;;29.83;12.55;;;;;;;24.92;47.69;93880.41;4156373;28;20110;-55
2022/05/29 09:02:16;;;;;;;11.55;4.30;;;;;;;25.11;46.80;93877.19;4160018;28;20065;-57
2022/05/29 09:04:32;;;;;;;18.85;5.10;;;;;;;25.24;45.09;93865.16;4163924;28;20058;-54
2022/05/29 09:06:37;;;;;;;19.70;6.88;;;;;;;25.28;46.01;93860.84;4161873;28;20511;-54
2022/05/29 09:09:16;;;;;;;8.13;3.00;;;;;;;25.24;44.76;93865.16;4166810;28;20345;-57
2022/05/29 09:11:27;;;;;;;9.55;3.08;;;;;;;25.24;44.85;93857.09;4160533;28;20057;-56
2022/05/29 09:13:37;;;;;;;13.50;2.80;;;;;;;25.32;44.62;93862.72;4171321;28;20053;-58
2022/05/29 09:15:40;;;;;;;9.70;2.80;;;;;;;25.43;44.18;93860.81;4158043;28;20058;-55
2022/05/29 09:17:49;;;;;;;10.02;2.63;;;;;;;25.47;44.78;93847.69;4170121;28;20565;-55
2022/05/29 09:19:53;;;;;;;10.38;3.10;;;;;;;25.40;43.90;93855.19;4165432;28;20049;-56
2022/05/29 09:22:03;;;;;;;7.30;2.80;;;;;;;25.47;44.02;93837.75;4140173;28;20104;-55
2022/05/29 09:24:21;;;;;;;9.30;2.70;;;;;;;25.58;44.50;93843.88;4159256;28;20057;-55
2022/05/29 09:26:23;;;;;;;12.20;3.35;;;;;;;25.67;44.83;93846.81;4159200;28;20057;-55
2022/05/29 09:28:39;;;;;;;9.80;3.00;;;;;;;25.61;44.38;93848.69;4171235;28;20053;-56
2022/05/29 09:30:41;;;;;;;9.73;2.63;;;;;;;25.60;44.20;93839.06;4156290;28;20226;-55
2022/05/29 09:32:52;;;;;;;11.48;2.70;;;;;;;25.58;45.03;93843.88;4159242;28;20085;-54
2022/05/29 09:35:19;;;;;;;9.77;2.78;;;;;;;25.61;44.71;93840.66;4161676;28;20049;-55
2022/05/29 09:37:27;;;;;;;8.05;2.35;;;;;;;25.67;44.81;93836.88;4164758;28;20389;-53
2022/05/29 09:39:53;;;;;;;10.48;3.05;;;;;;;25.76;44.54;93842.47;4166577;28;20621;-55
2022/05/29 09:42:15;;;;;;;8.27;2.65;;;;;;;25.63;43.79;93841.19;4170728;28;20132;-56
2022/05/29 09:44:19;;;;;;;9.88;2.78;;;;;;;25.57;44.00;93839.59;4157888;28;20486;-57
2022/05/29 09:46:23;;;;;;;12.70;3.17;;;;;;;25.69;44.30;93841.97;4163302;28;20053;-54
2022/05/29 09:50:52;;;;;;;12.80;3.33;;;;;;;25.82;44.33;93837.91;4170666;28;20056;-57
2022/05/29 09:52:54;;;;;;;8.60;2.92;;;;;;;25.82;43.88;93833.31;4161303;28;20037;-56
2022/05/29 09:55:04;;;;;;;12.93;2.95;;;;;;;25.71;44.52;93827.19;4164972;28;20060;-54
2022/05/29 09:57:19;;;;;;;8.57;3.20;;;;;;;25.67;44.52;93810.06;4173249;28;20057;-57
2022/05/29 09:59:22;;;;;;;7.75;2.83;;;;;;;25.80;45.32;93815.91;4171483;28;20182;-56
2022/05/29 10:01:36;;;;;;;9.98;3.20;;;;;;;25.79;44.59;93816.97;4174237;28;20045;-57
2022/05/29 10:03:43;;;;;;;12.00;3.08;;;;;;;25.81;44.76;93815.59;4165036;28;20156;-56
2022/05/29 10:05:45;;;;;;;18.13;3.25;;;;;;;25.80;44.63;93813.22;4154550;28;20115;-57
2022/05/29 10:07:47;;;;;;;11.73;3.25;;;;;;;25.90;45.03;93811.31;4160554;28;20057;-60
2022/05/29 10:10:01;;;;;;;10.98;2.95;;;;;;;25.98;44.65;93798.41;4161407;28;20112;-56
2022/05/29 10:12:18;;;;;;;8.85;3.20;;;;;;;25.83;44.54;93808.09;4168346;28;20148;-58
2022/05/29 10:14:40;;;;;;;10.32;3.53;;;;;;;25.89;43.58;93807.03;4170793;28;20049;-56
2022/05/29 10:16:42;;;;;;;8.85;3.17;;;;;;;25.97;44.26;93797.59;4158801;28;20053;-54
2022/05/29 10:18:44;;;;;;;9.57;3.38;;;;;;;26.00;44.33;93797.03;4161633;28;20435;-57
2022/05/29 10:20:46;;;;;;;8.20;3.53;;;;;;;25.95;43.77;93799.75;4163875;28;20040;-55
2022/05/29 10:22:48;;;;;;;11.98;3.25;;;;;;;25.92;44.11;93797.59;4157680;28;20057;-53